Terminal Aerodrome Forecast
Issued by NWS Sterling, VA

Current Version | Previous Version | Graphics & Text | Print | Product List | Glossary On
Versions: 1 2 3 4 5 6 7 8 9 10 11 12 13 14 15 16 17 18 19 20 21 22 23 24 25 26
345
FTUS41 KLWX 231139
TAFIAD
TAF
KIAD 231139Z 2312/2418 02005KT P6SM BKN050
     FM231800 06006KT P6SM OVC025
     FM232000 04006KT 6SM -RA OVC015
     FM240000 04005KT P6SM OVC008
     FM240500 VRB03KT P6SM OVC008
     FM241400 10004KT P6SM BKN020=

USA.gov is the U.S. government's official web portal to all federal, state and local government web resources and services.